Terminal Aerodrome Forecast
Issued by NWS Charleston, WV

Current Version | Previous Version | Graphics & Text | Print | Product List | Glossary On
Versions: 1 2 3 4 5 6 7 8 9 10 11 12 13 14 15 16 17 18 19 20 21 22 23 24
000
FTUS41 KRLX 171507 AAB
TAFCRW
TAF AMD
KCRW 171507Z 1715/1812 VRB03KT P6SM FEW004 SCT150
      TEMPO 1715/1716 BKN020
     FM171700 01003KT P6SM OVC040
      TEMPO 1720/1721 4SM -SHRA OVC025
     FM172100 03005KT 6SM -SHRA OVC050
     FM180200 08006KT P6SM OVC025
     FM180700 07006KT P6SM OVC014
     FM180800 07006KT 6SM -SHRA OVC008
     FM180900 06006KT 3SM -SHRA OVC011=

USA.gov is the U.S. government's official web portal to all federal, state and local government web resources and services.